createdAt,value
2018-12-24T00:00:59.727Z,82.06
2018-12-24T00:03:30.770Z,81.50
2018-12-24T00:06:01.581Z,81.45
2018-12-24T00:08:32.589Z,81.91
2018-12-24T00:11:03.562Z,81.09
2018-12-24T00:13:34.462Z,81.41
2018-12-24T00:16:05.523Z,81.53
2018-12-24T00:18:36.757Z,81.81
2018-12-24T00:21:07.845Z,81.61
2018-12-24T00:23:38.568Z,82.07
2018-12-24T00:26:09.367Z,82.60
2018-12-24T00:28:40.714Z,82.94
2018-12-24T00:31:11.510Z,82.82
2018-12-24T00:33:42.383Z,82.67
2018-12-24T00:36:13.491Z,81.97
2018-12-24T00:38:44.388Z,81.38
2018-12-24T00:41:15.236Z,81.38
2018-12-24T00:43:46.566Z,81.04
2018-12-24T00:46:17.262Z,80.63
2018-12-24T00:48:47.994Z,79.99
2018-12-24T00:51:19.024Z,79.60
2018-12-24T00:53:50.030Z,79.12
2018-12-24T00:56:20.860Z,78.75
2018-12-24T00:58:51.579Z,78.70
2018-12-24T01:01:22.732Z,78.34
2018-12-24T01:03:53.812Z,78.38
2018-12-24T01:06:24.830Z,78.82
2018-12-24T01:08:55.536Z,78.56
2018-12-24T01:11:26.892Z,77.80
2018-12-24T01:13:57.834Z,77.84
2018-12-24T01:16:28.894Z,77.25
2018-12-24T01:18:59.985Z,77.06
2018-12-24T01:21:31.047Z,76.63
2018-12-24T01:24:01.773Z,78.07
2018-12-24T01:26:32.631Z,77.10
2018-12-24T01:29:03.353Z,78.46
2018-12-24T01:31:34.927Z,78.90
2018-12-24T01:34:05.776Z,78.19
2018-12-24T01:36:36.763Z,77.61
2018-12-24T01:39:08.623Z,77.30
2018-12-24T01:41:39.692Z,77.15
2018-12-24T01:44:10.422Z,77.28
2018-12-24T01:46:41.706Z,78.34
2018-12-24T01:49:12.687Z,79.96
2018-12-24T01:51:43.687Z,79.71
2018-12-24T01:54:14.509Z,79.04
2018-12-24T01:56:45.882Z,80.82
2018-12-24T01:59:16.906Z,81.37
2018-12-24T02:01:48.656Z,81.89
2018-12-24T02:04:20.338Z,81.73
2018-12-24T02:06:51.500Z,80.38
2018-12-24T02:09:22.544Z,80.24
2018-12-24T02:11:53.371Z,79.62
2018-12-24T02:14:24.201Z,79.17
2018-12-24T02:16:55.271Z,78.52
2018-12-24T02:19:25.975Z,79.84
2018-12-24T02:21:56.946Z,80.14
2018-12-24T02:24:27.764Z,80.19
2018-12-24T02:26:58.775Z,80.16
2018-12-24T02:29:29.498Z,81.84
2018-12-24T02:32:00.880Z,81.57
2018-12-24T02:34:31.780Z,80.68
2018-12-24T02:37:02.840Z,79.74
2018-12-24T02:39:33.933Z,78.89
2018-12-24T02:42:05.243Z,77.73
2018-12-24T02:44:35.976Z,77.71
2018-12-24T02:47:07.238Z,76.74
2018-12-24T02:49:38.059Z,76.65
2018-12-24T02:52:09.027Z,77.00
2018-12-24T02:54:39.800Z,77.65
2018-12-24T02:57:11.067Z,78.43
2018-12-24T02:59:41.792Z,78.07
2018-12-24T03:02:13.048Z,78.70
2018-12-24T03:04:44.006Z,77.58
2018-12-24T03:07:15.170Z,79.00
2018-12-24T03:09:48.477Z,78.38
2018-12-24T03:12:19.575Z,81.25
2018-12-24T03:14:50.662Z,80.32
2018-12-24T03:17:21.562Z,79.50
2018-12-24T03:19:52.274Z,80.97
2018-12-24T03:22:23.329Z,80.36
2018-12-24T03:24:54.326Z,79.68
2018-12-24T03:27:25.311Z,78.16
2018-12-24T03:29:56.012Z,78.34
2018-12-24T03:32:27.656Z,77.77
2018-12-24T03:34:58.534Z,78.48
2018-12-24T03:37:29.885Z,77.89
2018-12-24T03:40:00.610Z,79.00
2018-12-24T03:42:31.488Z,79.74
2018-12-24T03:45:02.544Z,79.51
2018-12-24T03:47:33.558Z,79.61
2018-12-24T03:50:04.277Z,79.28
2018-12-24T03:52:35.204Z,79.08
2018-12-24T03:55:06.179Z,78.84
2018-12-24T03:57:37.182Z,78.67
2018-12-24T04:00:08.877Z,78.42
2018-12-24T04:02:40.023Z,78.79
2018-12-24T04:05:10.753Z,78.98
2018-12-24T04:07:41.914Z,78.98
2018-12-24T04:10:12.612Z,79.13
2018-12-24T04:12:43.754Z,79.94
2018-12-24T04:15:14.715Z,80.92
2018-12-24T04:17:45.757Z,79.51
2018-12-24T04:20:16.825Z,79.56
2018-12-24T04:22:47.908Z,80.49
2018-12-24T04:25:18.644Z,80.38
2018-12-24T04:27:49.943Z,80.30
2018-12-24T04:30:20.984Z,80.24
2018-12-24T04:32:51.849Z,79.64
2018-12-24T04:35:22.773Z,79.99
2018-12-24T04:37:53.623Z,79.77
2018-12-24T04:40:24.443Z,79.95
2018-12-24T04:42:55.669Z,80.20
2018-12-24T04:45:26.385Z,80.71
2018-12-24T04:47:57.641Z,80.58
2018-12-24T04:50:28.435Z,81.03
2018-12-24T04:52:59.517Z,82.09
2018-12-24T04:55:30.410Z,84.75
2018-12-24T04:58:01.625Z,83.67
2018-12-24T05:00:32.343Z,82.68
2018-12-24T05:03:04.271Z,82.78
2018-12-24T05:05:35.388Z,82.93
2018-12-24T05:08:06.094Z,82.94
2018-12-24T05:10:36.857Z,81.06
2018-12-24T05:13:08.162Z,80.63
2018-12-24T05:15:39.049Z,81.25
2018-12-24T05:18:10.248Z,81.76
2018-12-24T05:20:40.962Z,81.01
2018-12-24T05:23:11.691Z,81.29
2018-12-24T05:25:42.681Z,81.18
2018-12-24T05:28:13.700Z,83.17
2018-12-24T05:30:44.423Z,81.63
2018-12-24T05:33:15.683Z,82.21
2018-12-24T05:35:46.611Z,81.94
2018-12-24T05:38:17.381Z,81.43
2018-12-24T05:40:49.458Z,81.59
2018-12-24T05:43:20.660Z,81.80
2018-12-24T05:45:51.437Z,80.93
2018-12-24T05:48:22.414Z,80.52
2018-12-24T05:50:53.223Z,82.19
2018-12-24T05:53:24.352Z,82.58
2018-12-24T05:55:55.265Z,81.26
2018-12-24T05:58:26.358Z,81.77
2018-12-24T06:00:57.449Z,83.38
2018-12-24T06:03:28.642Z,83.66
2018-12-24T06:05:59.361Z,82.91
2018-12-24T06:08:30.417Z,83.24
2018-12-24T06:11:01.466Z,84.95
2018-12-24T06:13:32.566Z,84.69
2018-12-24T06:16:03.540Z,83.64
2018-12-24T06:18:34.281Z,82.81
2018-12-24T06:21:05.067Z,82.89
2018-12-24T06:23:36.135Z,83.33
2018-12-24T06:26:07.258Z,83.22
2018-12-24T06:28:38.317Z,82.65
2018-12-24T06:31:51.622Z,83.10
2018-12-24T06:34:22.183Z,83.06
2018-12-24T06:36:52.825Z,82.95
2018-12-24T06:39:23.471Z,83.67
2018-12-24T06:41:53.751Z,82.68
2018-12-24T06:44:24.284Z,81.46
2018-12-24T06:46:54.651Z,80.29
2018-12-24T06:49:26.138Z,80.30
2018-12-24T06:51:56.447Z,79.58
2018-12-24T06:54:27.438Z,79.33
2018-12-24T06:56:57.724Z,80.12
2018-12-24T06:59:28.021Z,80.38
2018-12-24T07:01:58.794Z,80.32
2018-12-24T07:04:29.378Z,79.71
2018-12-24T07:07:00.138Z,80.59
2018-12-24T07:09:30.417Z,80.16
2018-12-24T07:12:01.115Z,80.07
2018-12-24T07:14:31.790Z,78.42
2018-12-24T07:17:02.280Z,81.04
2018-12-24T07:19:32.549Z,79.86
2018-12-24T07:22:03.456Z,80.01
2018-12-24T07:24:33.857Z,78.89
2018-12-24T07:27:04.173Z,77.68
2018-12-24T07:29:34.924Z,76.51
2018-12-24T07:32:05.779Z,77.54
2018-12-24T07:34:36.118Z,77.79
2018-12-24T07:37:06.714Z,76.01
2018-12-24T07:39:36.996Z,74.17
2018-12-24T07:42:07.853Z,75.23
2018-12-24T07:44:38.177Z,75.52
2018-12-24T07:47:08.698Z,74.51
2018-12-24T07:49:39.103Z,71.94
2018-12-24T07:52:09.797Z,72.38
2018-12-24T07:54:40.108Z,69.59
2018-12-24T07:57:10.997Z,68.12
2018-12-24T07:59:41.527Z,68.28
2018-12-24T08:02:12.087Z,69.57
2018-12-24T08:04:42.805Z,67.73
2018-12-24T08:07:13.422Z,68.83
2018-12-24T08:09:44.224Z,67.66
2018-12-24T08:12:14.943Z,66.76
2018-12-24T08:14:45.260Z,66.63
2018-12-24T08:17:15.737Z,67.61
2018-12-24T08:19:46.129Z,68.03
2018-12-24T08:22:16.694Z,67.87
2018-12-24T08:24:47.149Z,68.53
2018-12-24T08:27:18.030Z,67.53
2018-12-24T08:29:48.319Z,69.39
2018-12-24T08:32:19.003Z,66.73
2018-12-24T08:34:51.032Z,66.52
2018-12-24T08:37:21.352Z,65.66
2018-12-24T08:39:51.694Z,66.39
2018-12-24T08:42:22.556Z,66.98
2018-12-24T08:44:52.970Z,66.91
2018-12-24T08:47:23.498Z,66.16
2018-12-24T08:49:54.177Z,66.12
2018-12-24T08:52:25.188Z,65.75
2018-12-24T08:54:55.469Z,64.41
2018-12-24T08:57:26.101Z,63.21
2018-12-24T08:59:56.505Z,61.96
2018-12-24T09:02:27.322Z,59.57
2018-12-24T09:04:57.826Z,58.03
2018-12-24T09:07:28.435Z,59.21
2018-12-24T09:09:58.803Z,57.89
2018-12-24T09:12:29.734Z,56.11
2018-12-24T09:15:00.093Z,57.76
2018-12-24T09:17:30.818Z,56.09
2018-12-24T09:20:01.461Z,56.20
2018-12-24T09:22:32.053Z,54.66
2018-12-24T09:25:02.623Z,54.71
2018-12-24T09:27:33.558Z,53.34
2018-12-24T09:30:03.907Z,55.53
2018-12-24T09:32:34.678Z,54.96
2018-12-24T09:35:05.458Z,54.00
2018-12-24T09:37:36.158Z,52.55
2018-12-24T09:40:07.920Z,51.90
2018-12-24T09:42:38.532Z,51.58
2018-12-24T09:45:08.868Z,50.14
2018-12-24T09:47:39.435Z,44.96
2018-12-24T09:50:09.825Z,47.49
2018-12-24T09:52:40.463Z,48.46
2018-12-24T09:55:11.138Z,48.66
2018-12-24T09:57:41.738Z,47.39
2018-12-24T10:00:15.432Z,45.56
2018-12-24T10:02:56.709Z,44.17
2018-12-24T10:05:28.929Z,43.13
2018-12-24T10:08:01.530Z,43.23
2018-12-24T10:10:32.644Z,43.32
2018-12-24T10:13:03.264Z,43.12
2018-12-24T10:15:33.610Z,43.06
2018-12-24T10:18:03.919Z,42.77
2018-12-24T10:20:34.224Z,43.69
2018-12-24T10:23:05.245Z,42.64
2018-12-24T10:25:35.766Z,42.32
2018-12-24T10:28:06.418Z,42.01
2018-12-24T10:30:37.386Z,40.12
2018-12-24T10:33:08.205Z,40.89
2018-12-24T10:35:39.676Z,41.85
2018-12-24T10:38:10.375Z,41.76
2018-12-24T10:40:49.673Z,41.63
2018-12-24T10:43:20.226Z,41.45
2018-12-24T10:45:50.549Z,41.39
2018-12-24T10:48:20.916Z,41.92
2018-12-24T10:50:51.558Z,42.12
2018-12-24T10:53:22.200Z,42.14
2018-12-24T10:55:52.474Z,41.96
2018-12-24T10:58:23.200Z,41.28
2018-12-24T11:00:53.991Z,41.23
2018-12-24T11:03:24.305Z,41.70
2018-12-24T11:05:55.020Z,41.48
2018-12-24T11:08:25.579Z,41.35
2018-12-24T11:10:55.850Z,41.74
2018-12-24T11:13:26.407Z,40.73
2018-12-24T11:15:57.082Z,41.42
2018-12-24T11:18:27.428Z,40.95
2018-12-24T11:20:58.240Z,41.07
2018-12-24T11:23:28.632Z,41.37
2018-12-24T11:25:59.231Z,40.95
2018-12-24T11:28:29.856Z,41.00
2018-12-24T11:31:00.147Z,40.86
2018-12-24T11:33:30.471Z,40.63
2018-12-24T11:36:01.092Z,40.17
2018-12-24T11:38:31.395Z,40.40
2018-12-24T11:41:01.961Z,40.38
2018-12-24T11:43:32.352Z,39.92
2018-12-24T11:46:03.073Z,39.97
2018-12-24T11:48:33.373Z,40.10
2018-12-24T11:51:04.162Z,40.31
2018-12-24T11:53:34.466Z,40.26
2018-12-24T11:56:05.245Z,40.29
2018-12-24T11:58:36.572Z,40.29
2018-12-24T12:01:07.049Z,40.46
2018-12-24T12:03:37.717Z,40.29
2018-12-24T12:06:08.300Z,40.54
2018-12-24T12:08:38.585Z,40.48
2018-12-24T12:11:09.162Z,41.31
2018-12-24T12:13:39.541Z,41.76
2018-12-24T12:16:09.885Z,41.74
2018-12-24T12:18:40.519Z,42.02
2018-12-24T12:21:11.474Z,41.71
2018-12-24T12:23:41.786Z,42.09
2018-12-24T12:26:12.698Z,42.06
2018-12-24T12:28:42.991Z,42.00
2018-12-24T12:31:13.669Z,42.00
2018-12-24T12:33:44.209Z,41.91
2018-12-24T12:36:14.877Z,42.41
2018-12-24T12:38:45.584Z,42.30
2018-12-24T12:41:16.161Z,42.48
2018-12-24T12:43:46.440Z,43.10
2018-12-24T12:46:17.134Z,43.03
2018-12-24T12:48:47.955Z,43.14
2018-12-24T12:51:18.633Z,43.03
2018-12-24T12:53:48.936Z,43.23
2018-12-24T12:56:20.860Z,43.42
2018-12-24T12:58:51.144Z,43.63
2018-12-24T13:01:21.876Z,43.58
2018-12-24T13:03:52.447Z,44.17
2018-12-24T13:06:23.088Z,43.52
2018-12-24T13:08:53.390Z,43.70
2018-12-24T13:11:23.810Z,43.49
2018-12-24T13:13:54.432Z,44.25
2018-12-24T13:16:25.026Z,43.87
2018-12-24T13:18:55.700Z,43.42
2018-12-24T13:21:26.402Z,44.14
2018-12-24T13:23:56.674Z,44.08
2018-12-24T13:26:27.481Z,43.84
2018-12-24T13:28:57.780Z,43.86
2018-12-24T13:31:28.808Z,44.41
2018-12-24T13:33:59.501Z,44.24
2018-12-24T13:36:29.951Z,44.63
2018-12-24T13:39:00.639Z,44.45
2018-12-24T13:41:31.488Z,44.48
2018-12-24T13:44:01.839Z,44.65
2018-12-24T13:46:32.254Z,44.75
2018-12-24T13:49:02.941Z,45.00
2018-12-24T13:51:33.272Z,44.80
2018-12-24T13:54:03.615Z,44.88
2018-12-24T13:56:34.154Z,45.05
2018-12-24T13:59:04.517Z,44.78
2018-12-24T14:01:34.964Z,45.37
2018-12-24T14:04:05.282Z,45.72
2018-12-24T14:06:35.765Z,46.23
2018-12-24T14:09:08.588Z,47.14
2018-12-24T14:11:38.911Z,48.84
2018-12-24T14:14:09.243Z,50.76
2018-12-24T14:16:39.877Z,52.05
2018-12-24T14:19:10.171Z,51.69
2018-12-24T14:21:40.512Z,54.53
2018-12-24T14:24:11.168Z,55.36
2018-12-24T14:26:41.778Z,55.24
2018-12-24T14:29:12.050Z,56.30
2018-12-24T14:31:42.704Z,57.04
2018-12-24T14:34:13.001Z,57.44
2018-12-24T14:36:43.447Z,58.01
2018-12-24T14:39:13.843Z,57.74
2018-12-24T14:41:44.146Z,57.52
2018-12-24T14:44:14.810Z,56.70
2018-12-24T14:46:45.407Z,57.79
2018-12-24T14:49:15.701Z,56.36
2018-12-24T14:51:46.380Z,55.73
2018-12-24T14:54:17.121Z,56.90
2018-12-24T14:56:48.421Z,56.54
2018-12-24T14:59:19.396Z,56.90
2018-12-24T15:01:49.933Z,57.50
2018-12-24T15:04:20.211Z,56.71
2018-12-24T15:06:51.562Z,56.96
2018-12-24T15:09:21.943Z,58.58
2018-12-24T15:11:52.629Z,57.30
2018-12-24T15:14:23.181Z,56.14
2018-12-24T15:16:53.452Z,54.95
2018-12-24T15:19:24.046Z,57.03
2018-12-24T15:21:54.636Z,57.11
2018-12-24T15:24:24.950Z,57.47
2018-12-24T15:26:55.408Z,59.56
2018-12-24T15:29:27.852Z,61.77
2018-12-24T15:31:58.135Z,63.84
2018-12-24T15:34:28.494Z,69.54
2018-12-24T15:36:59.021Z,73.54
2018-12-24T15:39:29.718Z,77.24
2018-12-24T15:42:00.350Z,80.44
2018-12-24T15:44:30.617Z,82.19
2018-12-24T15:47:01.213Z,83.69
2018-12-24T15:49:31.900Z,84.86
2018-12-24T15:52:02.203Z,84.75
2018-12-24T15:54:32.646Z,85.81
2018-12-24T15:57:03.337Z,85.07
2018-12-24T15:59:33.616Z,84.31
2018-12-24T16:02:03.935Z,85.01
2018-12-24T16:04:34.358Z,85.00
2018-12-24T16:07:04.667Z,83.69
2018-12-24T16:09:35.212Z,82.76
2018-12-24T16:12:05.537Z,81.21
2018-12-24T16:14:35.836Z,82.22
2018-12-24T16:17:06.605Z,81.28
2018-12-24T16:19:36.919Z,82.10
2018-12-24T16:22:07.231Z,82.92
2018-12-24T16:24:37.923Z,82.58
2018-12-24T16:27:08.417Z,81.02
2018-12-24T16:29:38.707Z,80.14
2018-12-24T16:32:09.402Z,79.70
2018-12-24T16:34:39.847Z,80.61
2018-12-24T16:37:10.138Z,80.09
2018-12-24T16:39:40.893Z,81.37
2018-12-24T16:42:11.177Z,81.62
2018-12-24T16:44:41.955Z,81.56
2018-12-24T16:47:12.337Z,80.32
2018-12-24T16:49:42.661Z,79.02
2018-12-24T16:52:13.352Z,78.02
2018-12-24T16:54:44.075Z,78.40
2018-12-24T16:57:14.340Z,77.68
2018-12-24T16:59:45.115Z,79.00
2018-12-24T17:02:15.523Z,77.69
2018-12-24T17:04:45.788Z,78.11
2018-12-24T17:07:16.148Z,77.35
2018-12-24T17:09:46.808Z,76.67
2018-12-24T17:12:17.125Z,77.81
2018-12-24T17:14:47.487Z,76.38
2018-12-24T17:17:18.024Z,76.59
2018-12-24T17:19:48.392Z,76.73
2018-12-24T17:22:18.762Z,76.05
2018-12-24T17:24:49.359Z,76.52
2018-12-24T17:27:19.888Z,76.28
2018-12-24T17:29:50.154Z,76.82
2018-12-24T17:32:20.797Z,76.53
2018-12-24T17:34:51.193Z,76.52
2018-12-24T17:37:21.477Z,76.20
2018-12-24T17:39:52.210Z,75.88
2018-12-24T17:42:22.886Z,75.70
2018-12-24T17:44:53.333Z,75.20
2018-12-24T17:47:23.672Z,75.47
2018-12-24T17:49:53.966Z,75.18
2018-12-24T17:52:24.636Z,74.65
2018-12-24T17:54:55.310Z,74.60
2018-12-24T17:57:25.650Z,74.31
2018-12-24T17:59:56.227Z,75.48
2018-12-24T18:02:26.941Z,75.36
2018-12-24T18:04:57.208Z,75.99
2018-12-24T18:07:28.728Z,75.51
2018-12-24T18:09:59.354Z,75.62
2018-12-24T18:12:29.701Z,75.49
2018-12-24T18:15:00.181Z,75.32
2018-12-24T18:17:30.657Z,74.29
2018-12-24T18:20:01.379Z,74.29
2018-12-24T18:22:33.066Z,74.29
2018-12-24T18:25:03.356Z,74.70
2018-12-24T18:27:33.943Z,74.41
2018-12-24T18:30:05.007Z,74.21
2018-12-24T18:32:36.383Z,74.23
2018-12-24T18:35:06.759Z,73.50
2018-12-24T18:37:37.420Z,73.58
2018-12-24T18:40:07.746Z,73.08
2018-12-24T18:42:38.025Z,72.37
2018-12-24T18:45:08.722Z,72.84
2018-12-24T18:47:39.359Z,73.50
2018-12-24T18:50:09.894Z,73.37
2018-12-24T18:52:40.439Z,73.33
2018-12-24T18:55:10.782Z,73.51
2018-12-24T18:57:41.494Z,73.15
2018-12-24T19:00:11.907Z,73.70
2018-12-24T19:02:42.225Z,73.03
2018-12-24T19:05:12.767Z,72.48
2018-12-24T19:07:43.435Z,73.02
2018-12-24T19:10:13.735Z,72.75
2018-12-24T19:12:44.646Z,72.76
2018-12-24T19:15:15.265Z,71.20
2018-12-24T19:17:45.541Z,71.62
2018-12-24T19:20:16.136Z,71.11
2018-12-24T19:22:46.420Z,71.27
2018-12-24T19:25:17.667Z,71.43
2018-12-24T19:27:49.465Z,70.61
2018-12-24T19:30:19.788Z,70.82
2018-12-24T19:32:51.499Z,70.65
2018-12-24T19:35:21.871Z,70.75
2018-12-24T19:37:52.175Z,70.86
2018-12-24T19:40:22.848Z,71.20
2018-12-24T19:42:53.217Z,71.20
2018-12-24T19:45:23.565Z,70.89
2018-12-24T19:47:53.930Z,71.09
2018-12-24T19:50:24.612Z,70.80
2018-12-24T19:52:54.951Z,71.26
2018-12-24T19:55:25.449Z,70.91
2018-12-24T19:57:55.771Z,71.16
2018-12-24T20:00:26.524Z,71.05
2018-12-24T20:02:56.901Z,70.95
2018-12-24T20:05:27.210Z,70.80
2018-12-24T20:07:57.741Z,71.35
2018-12-24T20:10:28.333Z,71.37
2018-12-24T20:12:58.660Z,71.13
2018-12-24T20:15:28.984Z,70.87
2018-12-24T20:17:59.572Z,71.40
2018-12-24T20:20:29.831Z,70.92
2018-12-24T20:23:00.165Z,71.47
2018-12-24T20:25:30.817Z,71.27
2018-12-24T20:28:01.272Z,71.36
2018-12-24T20:30:31.765Z,71.68
2018-12-24T20:33:02.090Z,71.36
2018-12-24T20:35:32.565Z,71.22
2018-12-24T20:38:03.259Z,71.97
2018-12-24T20:40:33.587Z,71.45
2018-12-24T20:43:03.860Z,71.02
2018-12-24T20:45:34.469Z,71.94
2018-12-24T20:48:06.727Z,71.70
2018-12-24T20:50:36.909Z,72.03
2018-12-24T20:53:07.557Z,72.12
2018-12-24T20:55:38.224Z,71.98
2018-12-24T20:58:09.109Z,72.11
2018-12-24T21:00:39.505Z,72.12
2018-12-24T21:03:10.225Z,71.63
2018-12-24T21:05:43.827Z,71.77
2018-12-24T21:08:14.303Z,72.19
2018-12-24T21:10:44.568Z,72.28
2018-12-24T21:13:15.219Z,72.26
2018-12-24T21:15:45.905Z,72.33
2018-12-24T21:18:16.225Z,72.54
2018-12-24T21:20:46.878Z,72.21
2018-12-24T21:23:17.645Z,71.80
2018-12-24T21:25:47.973Z,72.91
2018-12-24T21:28:18.390Z,72.00
2018-12-24T21:30:49.025Z,72.24
2018-12-24T21:33:19.323Z,72.24
2018-12-24T21:35:49.598Z,72.20
2018-12-24T21:38:20.296Z,71.82
2018-12-24T21:40:50.555Z,72.18
2018-12-24T21:43:20.865Z,71.90
2018-12-24T21:45:51.586Z,71.52
2018-12-24T21:48:23.897Z,71.16
2018-12-24T21:50:53.980Z,71.79
2018-12-24T21:53:24.560Z,72.14
2018-12-24T21:55:55.244Z,71.27
2018-12-24T21:58:25.508Z,71.27
2018-12-24T22:00:56.321Z,71.33
2018-12-24T22:03:26.587Z,70.92
2018-12-24T22:05:56.994Z,70.54
2018-12-24T22:08:27.550Z,70.25
2018-12-24T22:10:57.863Z,69.87
2018-12-24T22:13:28.563Z,69.56
2018-12-24T22:15:59.267Z,69.45
2018-12-24T22:18:32.353Z,69.88
2018-12-24T22:21:01.970Z,68.31
2018-12-24T22:23:32.565Z,68.61
2018-12-24T22:26:02.876Z,68.41
2018-12-24T22:28:33.220Z,68.27
2018-12-24T22:31:03.619Z,68.10
2018-12-24T22:33:33.882Z,68.11
2018-12-24T22:36:04.512Z,68.30
2018-12-24T22:38:34.874Z,68.18
2018-12-24T22:41:05.578Z,68.16
2018-12-24T22:43:36.292Z,68.59
2018-12-24T22:46:06.652Z,68.98
2018-12-24T22:48:40.803Z,68.19
2018-12-24T22:51:09.554Z,68.83
2018-12-24T22:53:39.825Z,68.94
2018-12-24T22:56:10.153Z,69.75
2018-12-24T22:58:40.875Z,70.57
2018-12-24T23:01:11.152Z,71.38
2018-12-24T23:03:41.468Z,71.91
2018-12-24T23:06:12.189Z,72.13
2018-12-24T23:08:42.757Z,72.55
2018-12-24T23:11:13.403Z,72.96
2018-12-24T23:13:43.733Z,72.47
2018-12-24T23:16:14.158Z,72.35
2018-12-24T23:18:49.326Z,72.66
2018-12-24T23:21:16.875Z,72.79
2018-12-24T23:23:47.145Z,72.47
2018-12-24T23:26:18.896Z,72.08
2018-12-24T23:28:49.225Z,71.95
2018-12-24T23:31:19.543Z,72.47
2018-12-24T23:33:49.985Z,72.21
2018-12-24T23:36:20.729Z,74.23
2018-12-24T23:38:51.038Z,74.59
2018-12-24T23:41:21.552Z,75.06
2018-12-24T23:43:52.319Z,75.30
2018-12-24T23:46:22.661Z,74.90
2018-12-24T23:48:57.631Z,74.53
2018-12-24T23:51:25.462Z,72.86
2018-12-24T23:53:55.732Z,72.66
2018-12-24T23:56:26.081Z,72.16
2018-12-24T23:58:56.692Z,72.29
